Aviation Digital Data Service (ADDS)

Output produced by METARs form (0851 UTC 19 April 2019)
found at http://www.aviationweather.gov/metar/data/
 
Forecast for: HECA (CAIRO INTL AIRPO, EG)
Text: TAF HECA 190500Z 1906/2012 VRB04KT CAVOK
Forecast period: 0600 to 0900 UTC 19 April 2019
Forecast type: FROM: standard forecast or significant change
Winds: variable direction winds at 5 MPH (4 knots; 2.1 m/s)
Visibility: 6 or more miles 10+ km)
Ceiling: unknown
Clouds: missing
Weather: NSW  (no significant weather)
Text: PROB40
Forecast period: 0600 to 1000 UTC 19 April 2019
Forecast type: TEMPORARY: The following changes expected for less than half the time period
Visibility: 2.49 miles (4.01 km)
Ceiling: unknown
Clouds: missing
Weather: HZ  (haze)
Text: TEMPO 1906/1910 4000 HZ NSC
Forecast period: 0900 UTC 19 April 2019 to 1200 UTC 20 April 2019
Forecast type: BECOMING: Conditions expected to become as follows by 1200 UTC 19 April 2019
Winds: from the NNW (330 degrees) at 14 MPH (12 knots; 6.2 m/s)
Visibility: 6 or more miles 10+ km)
Ceiling: at least 12,000 feet AGL
Clouds: scattered clouds at 2500 feet AGL
Weather: NSW  (no significant weather)